Alps Wideshine — 9HA2472 — position and weather

sailwx.info

Track history (hours):
 
Tides and Currents Weather Stations Pressure Air Temp Water Temp Dewpoint Dewpoint Depression Visibility Wind Speed Wind Dir Waves Ship Positions

Alps Wideshine

Last reported at 2015-Mar-24 09:26 UTC. Time now 2015-Mar-29 12:32 UTC.
Position N 25°56' W 079°30'.

Length 107 m; draft 5.5 m.

Type: Tanker. MMSI: 248694000.

Date/timePositionNaut miles runAvg speedWind from/ knotsBaromVisibWave heightAir tempDewpointWater temp
2015-Mar-24 09:26N 25°56' W 079°30'910.4
2015-Mar-24 08:33N 26°05' W 079°28'354 9.8
2015-Mar-22 20:25N 31°54' W 080°32'1012.0
2015-Mar-22 19:34N 31°58' W 080°44'1010.2
2015-Mar-22 18:34N 32°02' W 080°55'10 9.9
2015-Mar-22 17:33N 32°05' W 081°06'3 2.6
2015-Mar-22 16:33N 32°07' W 081°08'0 0.0
2015-Mar-22 15:33N 32°07' W 081°08'0 0.0
2015-Mar-22 14:30N 32°07' W 081°08'0 0.0
2015-Mar-22 13:33N 32°07' W 081°08'0 0.0
2015-Mar-22 12:33N 32°07' W 081°08'0 0.0
2015-Mar-22 11:33N 32°07' W 081°08'0 0.0
2015-Mar-22 10:33N 32°07' W 081°08'0 0.0
2015-Mar-22 09:33N 32°07' W 081°08'0 0.0
2015-Mar-22 08:33N 32°07' W 081°08'0 0.0
2015-Mar-22 07:33N 32°07' W 081°08'0 0.0
2015-Mar-22 06:33N 32°07' W 081°08'0 0.0
2015-Mar-22 05:33N 32°07' W 081°08'0 0.0
2015-Mar-22 04:33N 32°07' W 081°08'0 0.0
2015-Mar-22 03:33N 32°07' W 081°08'0 0.0
2015-Mar-22 02:33N 32°07' W 081°08'0 0.0
2015-Mar-22 01:33N 32°07' W 081°08'0 0.0
2015-Mar-22 00:33N 32°07' W 081°08'0 0.0
2015-Mar-21 23:33N 32°07' W 081°08'0 0.0
2015-Mar-21 22:33N 32°07' W 081°08'0 0.0
2015-Mar-21 21:33N 32°07' W 081°08'0 0.0
2015-Mar-21 20:33N 32°07' W 081°08'0 0.0
2015-Mar-21 19:33N 32°07' W 081°08'0 0.0
2015-Mar-21 18:33N 32°07' W 081°08'0 0.0
2015-Mar-21 17:30N 32°07' W 081°08'0 0.1
2015-Mar-21 16:33N 32°07' W 081°08'5 5.3
2015-Mar-21 15:33N 32°05' W 081°02'9 9.1
2015-Mar-21 14:33N 32°02' W 080°52'9 9.0
2015-Mar-21 13:33N 31°58' W 080°43'6 5.6
2015-Mar-21 12:28N 31°56' W 080°36'  
Track history (hours):
 
Tides and Currents Weather Stations Pressure Air Temp Water Temp Dewpoint Dewpoint Depression Visibility Wind Speed Wind Dir Waves Ship Positions

Alps Wideshine

Last reported at 2015-Mar-24 09:26 UTC. Time now 2015-Mar-29 12:32 UTC.
Position N 25°56' W 079°30'.

Length 107 m; draft 5.5 m.

Type: Tanker. MMSI: 248694000.

Date/timePositionNaut miles runAvg speedWind from/ knotsBaromVisibWave heightAir tempDewpointWater temp
2015-Mar-24 09:26N 25°56' W 079°30'910.4
2015-Mar-24 08:33N 26°05' W 079°28'354 9.8
2015-Mar-22 20:25N 31°54' W 080°32'1012.0
2015-Mar-22 19:34N 31°58' W 080°44'1010.2
2015-Mar-22 18:34N 32°02' W 080°55'10 9.9
2015-Mar-22 17:33N 32°05' W 081°06'3 2.6
2015-Mar-22 16:33N 32°07' W 081°08'0 0.0
2015-Mar-22 15:33N 32°07' W 081°08'0 0.0
2015-Mar-22 14:30N 32°07' W 081°08'0 0.0
2015-Mar-22 13:33N 32°07' W 081°08'0 0.0
2015-Mar-22 12:33N 32°07' W 081°08'0 0.0
2015-Mar-22 11:33N 32°07' W 081°08'0 0.0
2015-Mar-22 10:33N 32°07' W 081°08'0 0.0
2015-Mar-22 09:33N 32°07' W 081°08'0 0.0
2015-Mar-22 08:33N 32°07' W 081°08'0 0.0
2015-Mar-22 07:33N 32°07' W 081°08'0 0.0
2015-Mar-22 06:33N 32°07' W 081°08'0 0.0
2015-Mar-22 05:33N 32°07' W 081°08'0 0.0
2015-Mar-22 04:33N 32°07' W 081°08'0 0.0
2015-Mar-22 03:33N 32°07' W 081°08'0 0.0
2015-Mar-22 02:33N 32°07' W 081°08'0 0.0
2015-Mar-22 01:33N 32°07' W 081°08'0 0.0
2015-Mar-22 00:33N 32°07' W 081°08'0 0.0
2015-Mar-21 23:33N 32°07' W 081°08'0 0.0
2015-Mar-21 22:33N 32°07' W 081°08'0 0.0
2015-Mar-21 21:33N 32°07' W 081°08'0 0.0
2015-Mar-21 20:33N 32°07' W 081°08'0 0.0
2015-Mar-21 19:33N 32°07' W 081°08'0 0.0
2015-Mar-21 18:33N 32°07' W 081°08'0 0.0
2015-Mar-21 17:30N 32°07' W 081°08'0 0.1
2015-Mar-21 16:33N 32°07' W 081°08'5 5.3
2015-Mar-21 15:33N 32°05' W 081°02'9 9.1
2015-Mar-21 14:33N 32°02' W 080°52'9 9.0
2015-Mar-21 13:33N 31°58' W 080°43'6 5.6
2015-Mar-21 12:28N 31°56' W 080°36'  

Dump ship's entire track history